sensor_id;sensor_type;location;lat;lon;timestamp;pressure;altitude;pressure_sealevel;temperature;humidity
31585;BME280;18191;51.288;12.390;2023-02-05T00:04:46;49128.19;;;-144.47;75.82
31585;BME280;18191;51.288;12.390;2023-02-05T00:09:37;49086.41;;;-144.47;77.65
31585;BME280;18191;51.288;12.390;2023-02-05T00:14:29;49100.34;;;-144.47;78.25
31585;BME280;18191;51.288;12.390;2023-02-05T00:19:19;49118.25;;;-144.47;78.63
31585;BME280;18191;51.288;12.390;2023-02-05T00:24:10;49134.16;;;-144.47;78.05
31585;BME280;18191;51.288;12.390;2023-02-05T00:29:00;49104.31;;;-144.47;77.96
31585;BME280;18191;51.288;12.390;2023-02-05T00:33:51;49100.34;;;-144.47;78.69
31585;BME280;18191;51.288;12.390;2023-02-05T00:38:42;49140.13;;;-144.47;79.40
31585;BME280;18191;51.288;12.390;2023-02-05T00:43:32;49088.41;;;-144.47;79.16
31585;BME280;18191;51.288;12.390;2023-02-05T00:48:22;49098.34;;;-144.47;79.22
31585;BME280;18191;51.288;12.390;2023-02-05T00:53:13;49090.41;;;-144.47;79.43
31585;BME280;18191;51.288;12.390;2023-02-05T00:58:03;49084.44;;;-144.47;79.78
31585;BME280;18191;51.288;12.390;2023-02-05T01:02:53;49108.31;;;-144.47;78.90
31585;BME280;18191;51.288;12.390;2023-02-05T01:07:43;49124.22;;;-144.47;78.51
31585;BME280;18191;51.288;12.390;2023-02-05T01:12:34;49076.47;;;-144.47;77.46
31585;BME280;18191;51.288;12.390;2023-02-05T01:17:24;49106.31;;;-144.47;76.84
31585;BME280;18191;51.288;12.390;2023-02-05T01:22:14;49144.09;;;-144.47;75.55
31585;BME280;18191;51.288;12.390;2023-02-05T01:27:04;49152.06;;;-144.47;74.85
31585;BME280;18191;51.288;12.390;2023-02-05T01:31:55;49080.44;;;-144.47;73.82
31585;BME280;18191;51.288;12.390;2023-02-05T01:36:46;49114.28;;;-144.47;72.84
31585;BME280;18191;51.288;12.390;2023-02-05T01:41:37;49108.31;;;-144.47;71.83
31585;BME280;18191;51.288;12.390;2023-02-05T01:46:31;49076.47;;;-144.47;72.01
31585;BME280;18191;51.288;12.390;2023-02-05T01:51:21;49084.44;;;-144.47;74.20
31585;BME280;18191;51.288;12.390;2023-02-05T01:56:14;49128.19;;;-144.47;74.49
31585;BME280;18191;51.288;12.390;2023-02-05T02:01:06;49100.34;;;-144.47;76.38
31585;BME280;18191;51.288;12.390;2023-02-05T02:05:56;49126.22;;;-144.47;77.12
31585;BME280;18191;51.288;12.390;2023-02-05T02:10:47;49132.16;;;-144.47;77.35
31585;BME280;18191;51.288;12.390;2023-02-05T02:15:38;49142.13;;;-144.47;78.26
31585;BME280;18191;51.288;12.390;2023-02-05T02:20:30;49108.31;;;-144.47;78.43
31585;BME280;18191;51.288;12.390;2023-02-05T02:30:33;49080.44;;;-144.47;78.35
31585;BME280;18191;51.288;12.390;2023-02-05T02:35:28;49136.16;;;-144.47;77.80
31585;BME280;18191;51.288;12.390;2023-02-05T02:40:22;49088.41;;;-144.47;77.30
31585;BME280;18191;51.288;12.390;2023-02-05T02:45:15;49120.25;;;-144.47;78.27
31585;BME280;18191;51.288;12.390;2023-02-05T02:50:16;49088.41;;;-144.47;78.44
31585;BME280;18191;51.288;12.390;2023-02-05T02:55:10;49096.38;;;-144.47;79.06
31585;BME280;18191;51.288;12.390;2023-02-05T03:00:00;49124.22;;;-144.47;78.50
31585;BME280;18191;51.288;12.390;2023-02-05T03:04:54;49138.16;;;-144.47;78.51
31585;BME280;18191;51.288;12.390;2023-02-05T03:10:02;49052.59;;;-144.47;79.65
31585;BME280;18191;51.288;12.390;2023-02-05T03:14:56;49104.31;;;-144.47;79.18
31585;BME280;18191;51.288;12.390;2023-02-05T03:19:47;49090.41;;;-144.47;78.44
31585;BME280;18191;51.288;12.390;2023-02-05T03:24:39;49136.16;;;-144.47;77.00
31585;BME280;18191;51.288;12.390;2023-02-05T03:29:30;49108.31;;;-144.47;78.55
31585;BME280;18191;51.288;12.390;2023-02-05T03:34:44;49106.31;;;-144.47;79.58
31585;BME280;18191;51.288;12.390;2023-02-05T03:39:53;49132.16;;;-144.47;79.81
31585;BME280;18191;51.288;12.390;2023-02-05T03:45:08;49124.22;;;-144.47;80.07
31585;BME280;18191;51.288;12.390;2023-02-05T03:50:11;49140.13;;;-144.47;80.10
31585;BME280;18191;51.288;12.390;2023-02-05T03:55:08;49080.44;;;-144.47;80.51
31585;BME280;18191;51.288;12.390;2023-02-05T04:00:00;49104.31;;;-144.47;80.04
31585;BME280;18191;51.288;12.390;2023-02-05T04:04:50;49128.19;;;-144.47;81.08
31585;BME280;18191;51.288;12.390;2023-02-05T04:09:40;49138.16;;;-144.47;81.95
31585;BME280;18191;51.288;12.390;2023-02-05T04:14:30;49148.09;;;-144.47;82.02
31585;BME280;18191;51.288;12.390;2023-02-05T04:19:21;49092.38;;;-144.47;82.18
31585;BME280;18191;51.288;12.390;2023-02-05T04:24:11;49108.31;;;-144.47;81.99
31585;BME280;18191;51.288;12.390;2023-02-05T04:29:01;49144.09;;;-144.47;82.21
31585;BME280;18191;51.288;12.390;2023-02-05T04:33:51;49124.22;;;-144.47;82.39
31585;BME280;18191;51.288;12.390;2023-02-05T04:38:41;49138.16;;;-144.47;82.40
31585;BME280;18191;51.288;12.390;2023-02-05T04:43:32;49112.28;;;-144.47;82.77
31585;BME280;18191;51.288;12.390;2023-02-05T04:48:22;49128.19;;;-144.47;82.86
31585;BME280;18191;51.288;12.390;2023-02-05T04:53:12;49132.16;;;-144.47;82.75
31585;BME280;18191;51.288;12.390;2023-02-05T04:58:02;49100.34;;;-144.47;82.90
31585;BME280;18191;51.288;12.390;2023-02-05T05:02:53;49092.38;;;-144.47;83.07
31585;BME280;18191;51.288;12.390;2023-02-05T05:07:43;49108.31;;;-144.47;83.19
31585;BME280;18191;51.288;12.390;2023-02-05T05:12:34;49116.25;;;-144.47;83.47
31585;BME280;18191;51.288;12.390;2023-02-05T05:17:24;49092.38;;;-144.47;84.07
31585;BME280;18191;51.288;12.390;2023-02-05T05:22:14;49104.31;;;-144.47;83.88
31585;BME280;18191;51.288;12.390;2023-02-05T05:27:05;49118.25;;;-144.47;83.72
31585;BME280;18191;51.288;12.390;2023-02-05T05:31:55;49120.25;;;-144.47;83.98
31585;BME280;18191;51.288;12.390;2023-02-05T05:36:45;49154.06;;;-144.47;84.71
31585;BME280;18191;51.288;12.390;2023-02-05T05:41:36;49092.38;;;-144.47;84.52
31585;BME280;18191;51.288;12.390;2023-02-05T05:46:45;49122.22;;;-144.47;84.41
31585;BME280;18191;51.288;12.390;2023-02-05T05:51:35;49100.34;;;-144.47;83.84
31585;BME280;18191;51.288;12.390;2023-02-05T05:56:25;49128.19;;;-144.47;83.44
31585;BME280;18191;51.288;12.390;2023-02-05T06:01:16;49140.13;;;-144.47;83.58
31585;BME280;18191;51.288;12.390;2023-02-05T06:06:08;49112.28;;;-144.47;84.24
31585;BME280;18191;51.288;12.390;2023-02-05T06:11:02;49074.47;;;-144.47;84.30
31585;BME280;18191;51.288;12.390;2023-02-05T06:15:52;49152.06;;;-144.47;84.63
31585;BME280;18191;51.288;12.390;2023-02-05T06:20:45;49096.38;;;-144.47;84.87
31585;BME280;18191;51.288;12.390;2023-02-05T06:25:36;49112.28;;;-144.47;84.45
31585;BME280;18191;51.288;12.390;2023-02-05T06:30:26;49156.03;;;-144.47;84.41
31585;BME280;18191;51.288;12.390;2023-02-05T06:35:16;49128.19;;;-144.47;83.84
31585;BME280;18191;51.288;12.390;2023-02-05T06:40:06;49080.44;;;-144.47;83.84
31585;BME280;18191;51.288;12.390;2023-02-05T06:44:57;49104.31;;;-144.47;84.25
31585;BME280;18191;51.288;12.390;2023-02-05T06:49:47;49100.34;;;-144.47;84.43
31585;BME280;18191;51.288;12.390;2023-02-05T06:54:37;49088.41;;;-144.47;84.54
31585;BME280;18191;51.288;12.390;2023-02-05T06:59:27;49154.06;;;-144.47;84.56
31585;BME280;18191;51.288;12.390;2023-02-05T07:04:18;49072.50;;;-144.47;84.61
31585;BME280;18191;51.288;12.390;2023-02-05T07:09:08;49173.94;;;-144.47;84.18
31585;BME280;18191;51.288;12.390;2023-02-05T07:14:01;49144.09;;;-144.47;83.91
31585;BME280;18191;51.288;12.390;2023-02-05T07:18:51;49114.28;;;-144.47;83.62
31585;BME280;18191;51.288;12.390;2023-02-05T07:23:42;49102.34;;;-144.47;83.82
31585;BME280;18191;51.288;12.390;2023-02-05T07:28:32;49136.16;;;-144.47;84.16
31585;BME280;18191;51.288;12.390;2023-02-05T07:33:22;49112.28;;;-144.47;83.59
31585;BME280;18191;51.288;12.390;2023-02-05T07:38:12;49088.41;;;-144.47;83.50
31585;BME280;18191;51.288;12.390;2023-02-05T07:43:03;49148.09;;;-144.47;82.93
31585;BME280;18191;51.288;12.390;2023-02-05T07:47:53;49100.34;;;-144.47;81.69
31585;BME280;18191;51.288;12.390;2023-02-05T07:52:43;49104.31;;;-144.47;80.20
31585;BME280;18191;51.288;12.390;2023-02-05T07:57:33;49108.31;;;-144.47;79.74
31585;BME280;18191;51.288;12.390;2023-02-05T08:02:23;49108.31;;;-144.47;80.14
31585;BME280;18191;51.288;12.390;2023-02-05T08:07:14;49088.41;;;-144.47;79.41
31585;BME280;18191;51.288;12.390;2023-02-05T08:12:04;49092.38;;;-144.47;79.57
31585;BME280;18191;51.288;12.390;2023-02-05T08:16:54;49092.38;;;-144.47;79.06
31585;BME280;18191;51.288;12.390;2023-02-05T08:21:44;49064.53;;;-144.47;78.16
31585;BME280;18191;51.288;12.390;2023-02-05T08:26:35;49086.41;;;-144.47;78.13
31585;BME280;18191;51.288;12.390;2023-02-05T08:31:25;49136.16;;;-144.47;78.05
31585;BME280;18191;51.288;12.390;2023-02-05T08:36:15;49096.38;;;-144.47;77.91
31585;BME280;18191;51.288;12.390;2023-02-05T08:41:09;49092.38;;;-144.47;77.68
31585;BME280;18191;51.288;12.390;2023-02-05T08:46:02;49084.44;;;-144.47;77.41
31585;BME280;18191;51.288;12.390;2023-02-05T08:50:52;49122.22;;;-144.47;77.15
31585;BME280;18191;51.288;12.390;2023-02-05T08:55:42;49072.50;;;-144.47;77.40
31585;BME280;18191;51.288;12.390;2023-02-05T09:00:35;49080.44;;;-144.47;77.05
31585;BME280;18191;51.288;12.390;2023-02-05T09:05:27;49116.25;;;-144.47;75.69
31585;BME280;18191;51.288;12.390;2023-02-05T09:10:18;49068.50;;;-144.47;74.69
31585;BME280;18191;51.288;12.390;2023-02-05T09:15:08;49088.41;;;-144.47;75.58
31585;BME280;18191;51.288;12.390;2023-02-05T09:19:58;49124.22;;;-144.47;75.14
31585;BME280;18191;51.288;12.390;2023-02-05T09:24:49;49080.44;;;-144.47;73.71
31585;BME280;18191;51.288;12.390;2023-02-05T09:29:39;49144.09;;;-144.47;74.59
31585;BME280;18191;51.288;12.390;2023-02-05T09:34:30;49100.34;;;-144.47;74.96
31585;BME280;18191;51.288;12.390;2023-02-05T09:39:20;49132.16;;;-144.47;74.93
31585;BME280;18191;51.288;12.390;2023-02-05T09:53:55;49090.41;;;-144.47;73.06
31585;BME280;18191;51.288;12.390;2023-02-05T09:58:47;49100.34;;;-144.47;72.69
31585;BME280;18191;51.288;12.390;2023-02-05T10:03:42;49112.28;;;-144.47;71.31
31585;BME280;18191;51.288;12.390;2023-02-05T10:13:30;49106.31;;;-144.47;69.59
31585;BME280;18191;51.288;12.390;2023-02-05T10:23:41;49082.44;;;-144.47;70.40
31585;BME280;18191;51.288;12.390;2023-02-05T10:38:21;49084.44;;;-144.47;69.16
31585;BME280;18191;51.288;12.390;2023-02-05T10:43:28;49124.22;;;-144.47;69.30
31585;BME280;18191;51.288;12.390;2023-02-05T10:48:39;49094.38;;;-144.47;68.26
31585;BME280;18191;51.288;12.390;2023-02-05T10:53:30;49096.38;;;-144.47;68.34
31585;BME280;18191;51.288;12.390;2023-02-05T10:58:41;49108.31;;;-144.47;68.99
31585;BME280;18191;51.288;12.390;2023-02-05T11:03:33;49080.44;;;-144.47;67.14
31585;BME280;18191;51.288;12.390;2023-02-05T11:08:35;49090.41;;;-144.47;67.30
31585;BME280;18191;51.288;12.390;2023-02-05T11:13:26;49068.50;;;-144.47;67.90
31585;BME280;18191;51.288;12.390;2023-02-05T11:18:21;49086.41;;;-144.47;66.41
31585;BME280;18191;51.288;12.390;2023-02-05T11:28:02;49098.34;;;-144.47;65.53
31585;BME280;18191;51.288;12.390;2023-02-05T11:32:53;49100.34;;;-144.47;65.28
31585;BME280;18191;51.288;12.390;2023-02-05T11:37:43;49064.53;;;-144.47;64.65
31585;BME280;18191;51.288;12.390;2023-02-05T11:42:34;49078.47;;;-144.47;64.17
31585;BME280;18191;51.288;12.390;2023-02-05T11:47:29;49084.44;;;-144.47;62.61
31585;BME280;18191;51.288;12.390;2023-02-05T11:52:25;49104.31;;;-144.47;62.99
31585;BME280;18191;51.288;12.390;2023-02-05T12:02:29;49076.47;;;-144.47;60.74
31585;BME280;18191;51.288;12.390;2023-02-05T12:07:19;49088.41;;;-144.47;61.41
31585;BME280;18191;51.288;12.390;2023-02-05T12:17:41;49084.44;;;-144.47;62.26
31585;BME280;18191;51.288;12.390;2023-02-05T12:22:38;49030.72;;;-144.47;63.35
31585;BME280;18191;51.288;12.390;2023-02-05T12:32:37;49084.44;;;-144.47;64.40
31585;BME280;18191;51.288;12.390;2023-02-05T12:37:35;49080.44;;;-144.47;62.18
31585;BME280;18191;51.288;12.390;2023-02-05T12:57:23;49102.34;;;-144.47;61.93
31585;BME280;18191;51.288;12.390;2023-02-05T13:02:35;49100.34;;;-144.47;62.84
31585;BME280;18191;51.288;12.390;2023-02-05T13:12:21;49040.66;;;-144.47;62.60
31585;BME280;18191;51.288;12.390;2023-02-05T13:17:14;49086.41;;;-144.47;62.62
31585;BME280;18191;51.288;12.390;2023-02-05T13:22:14;49062.56;;;-144.47;62.29
31585;BME280;18191;51.288;12.390;2023-02-05T13:27:25;49076.47;;;-144.47;62.68
31585;BME280;18191;51.288;12.390;2023-02-05T13:32:35;49080.44;;;-144.47;61.41
31585;BME280;18191;51.288;12.390;2023-02-05T13:37:28;49068.50;;;-144.47;59.13
31585;BME280;18191;51.288;12.390;2023-02-05T13:47:41;49100.34;;;-144.47;60.25
31585;BME280;18191;51.288;12.390;2023-02-05T13:57:46;49090.41;;;-144.47;61.28
31585;BME280;18191;51.288;12.390;2023-02-05T14:02:47;49072.50;;;-144.47;62.99
31585;BME280;18191;51.288;12.390;2023-02-05T14:07:56;49066.53;;;-144.47;62.16
31585;BME280;18191;51.288;12.390;2023-02-05T14:12:50;49082.44;;;-144.47;61.70
31585;BME280;18191;51.288;12.390;2023-02-05T14:22:38;49068.50;;;-144.47;63.20
31585;BME280;18191;51.288;12.390;2023-02-05T14:37:48;49100.34;;;-144.47;63.56
31585;BME280;18191;51.288;12.390;2023-02-05T14:42:31;49066.53;;;-144.47;63.49
31585;BME280;18191;51.288;12.390;2023-02-05T14:47:24;49076.47;;;-144.47;63.88
31585;BME280;18191;51.288;12.390;2023-02-05T14:52:22;49092.38;;;-144.47;63.45
31585;BME280;18191;51.288;12.390;2023-02-05T14:57:19;49104.31;;;-144.47;64.58
31585;BME280;18191;51.288;12.390;2023-02-05T15:07:23;49076.47;;;-144.47;65.48
31585;BME280;18191;51.288;12.390;2023-02-05T15:22:25;49016.78;;;-144.47;66.45
31585;BME280;18191;51.288;12.390;2023-02-05T15:27:18;49100.34;;;-144.47;66.62
31585;BME280;18191;51.288;12.390;2023-02-05T15:32:17;49074.47;;;-144.47;66.97
31585;BME280;18191;51.288;12.390;2023-02-05T15:41:59;49080.44;;;-144.47;67.62
31585;BME280;18191;51.288;12.390;2023-02-05T15:46:50;49072.50;;;-144.47;68.45
31585;BME280;18191;51.288;12.390;2023-02-05T15:51:41;49064.53;;;-144.47;69.12
31585;BME280;18191;51.288;12.390;2023-02-05T15:56:38;49104.31;;;-144.47;69.89
31585;BME280;18191;51.288;12.390;2023-02-05T16:01:32;49096.38;;;-144.47;70.41
31585;BME280;18191;51.288;12.390;2023-02-05T16:06:24;49072.50;;;-144.47;71.62
31585;BME280;18191;51.288;12.390;2023-02-05T16:11:25;49114.28;;;-144.47;72.51
31585;BME280;18191;51.288;12.390;2023-02-05T16:16:16;49088.41;;;-144.47;71.78
31585;BME280;18191;51.288;12.390;2023-02-05T16:26:06;49084.44;;;-144.47;72.45
31585;BME280;18191;51.288;12.390;2023-02-05T16:31:01;49092.38;;;-144.47;72.62
31585;BME280;18191;51.288;12.390;2023-02-05T16:35:52;49070.50;;;-144.47;73.23
31585;BME280;18191;51.288;12.390;2023-02-05T16:40:43;49076.47;;;-144.47;72.61
31585;BME280;18191;51.288;12.390;2023-02-05T16:45:37;49112.28;;;-144.47;72.25
31585;BME280;18191;51.288;12.390;2023-02-05T16:50:35;49086.41;;;-144.47;72.42
31585;BME280;18191;51.288;12.390;2023-02-05T17:05:25;49048.63;;;-144.47;72.65
31585;BME280;18191;51.288;12.390;2023-02-05T17:10:18;49120.25;;;-144.47;74.21
31585;BME280;18191;51.288;12.390;2023-02-05T17:24:58;49056.59;;;-144.47;72.05
31585;BME280;18191;51.288;12.390;2023-02-05T17:29:48;49092.38;;;-144.47;72.44
31585;BME280;18191;51.288;12.390;2023-02-05T17:34:39;49076.47;;;-144.47;73.75
31585;BME280;18191;51.288;12.390;2023-02-05T17:39:29;49068.50;;;-144.47;73.89
31585;BME280;18191;51.288;12.390;2023-02-05T17:44:19;49122.22;;;-144.47;74.66
31585;BME280;18191;51.288;12.390;2023-02-05T17:49:09;49100.34;;;-144.47;75.22
31585;BME280;18191;51.288;12.390;2023-02-05T17:54:00;49108.31;;;-144.47;74.76
31585;BME280;18191;51.288;12.390;2023-02-05T17:58:51;49074.47;;;-144.47;75.82
31585;BME280;18191;51.288;12.390;2023-02-05T18:03:41;49108.31;;;-144.47;76.28
31585;BME280;18191;51.288;12.390;2023-02-05T18:08:31;49140.13;;;-144.47;76.73
31585;BME280;18191;51.288;12.390;2023-02-05T18:13:25;49124.22;;;-144.47;76.69
31585;BME280;18191;51.288;12.390;2023-02-05T18:18:15;49086.41;;;-144.47;76.20
31585;BME280;18191;51.288;12.390;2023-02-05T18:23:08;49072.50;;;-144.47;76.60
31585;BME280;18191;51.288;12.390;2023-02-05T18:27:58;49096.38;;;-144.47;77.62
31585;BME280;18191;51.288;12.390;2023-02-05T18:32:48;49078.47;;;-144.47;78.33
31585;BME280;18191;51.288;12.390;2023-02-05T18:37:39;49134.16;;;-144.47;78.79
31585;BME280;18191;51.288;12.390;2023-02-05T18:42:29;49108.31;;;-144.47;78.17
31585;BME280;18191;51.288;12.390;2023-02-05T18:47:19;49128.19;;;-144.47;77.91
31585;BME280;18191;51.288;12.390;2023-02-05T18:52:10;49084.44;;;-144.47;78.76
31585;BME280;18191;51.288;12.390;2023-02-05T18:57:02;49096.38;;;-144.47;79.53
31585;BME280;18191;51.288;12.390;2023-02-05T19:01:52;49088.41;;;-144.47;79.19
31585;BME280;18191;51.288;12.390;2023-02-05T19:06:44;49120.25;;;-144.47;79.75
31585;BME280;18191;51.288;12.390;2023-02-05T19:11:34;49088.41;;;-144.47;79.76
31585;BME280;18191;51.288;12.390;2023-02-05T19:16:30;49144.09;;;-144.47;80.28
31585;BME280;18191;51.288;12.390;2023-02-05T19:21:21;49104.31;;;-144.47;80.29
31585;BME280;18191;51.288;12.390;2023-02-05T19:26:13;49084.44;;;-144.47;81.32
31585;BME280;18191;51.288;12.390;2023-02-05T19:31:04;49064.53;;;-144.47;81.76
31585;BME280;18191;51.288;12.390;2023-02-05T19:35:55;49116.25;;;-144.47;81.48
31585;BME280;18191;51.288;12.390;2023-02-05T19:40:45;49096.38;;;-144.47;82.03
31585;BME280;18191;51.288;12.390;2023-02-05T19:45:35;49104.31;;;-144.47;81.22
31585;BME280;18191;51.288;12.390;2023-02-05T19:50:26;49104.31;;;-144.47;81.87
31585;BME280;18191;51.288;12.390;2023-02-05T19:55:16;49110.28;;;-144.47;81.98
31585;BME280;18191;51.288;12.390;2023-02-05T20:00:06;49076.47;;;-144.47;82.40
31585;BME280;18191;51.288;12.390;2023-02-05T20:04:57;49080.44;;;-144.47;82.52
31585;BME280;18191;51.288;12.390;2023-02-05T20:09:48;49108.31;;;-144.47;82.38
31585;BME280;18191;51.288;12.390;2023-02-05T20:14:38;49102.34;;;-144.47;82.87
31585;BME280;18191;51.288;12.390;2023-02-05T20:19:28;49088.41;;;-144.47;82.87
31585;BME280;18191;51.288;12.390;2023-02-05T20:24:18;49116.25;;;-144.47;82.83
31585;BME280;18191;51.288;12.390;2023-02-05T20:29:08;49096.38;;;-144.47;83.17
31585;BME280;18191;51.288;12.390;2023-02-05T20:34:18;49122.22;;;-144.47;83.22
31585;BME280;18191;51.288;12.390;2023-02-05T20:39:11;49156.03;;;-144.47;83.73
31585;BME280;18191;51.288;12.390;2023-02-05T20:44:02;49124.22;;;-144.47;83.76
31585;BME280;18191;51.288;12.390;2023-02-05T20:48:52;49203.78;;;-144.47;83.75
31585;BME280;18191;51.288;12.390;2023-02-05T20:53:42;49100.34;;;-144.47;83.35
31585;BME280;18191;51.288;12.390;2023-02-05T20:58:32;49084.44;;;-144.47;83.95
31585;BME280;18191;51.288;12.390;2023-02-05T21:03:23;49096.38;;;-144.47;83.82
31585;BME280;18191;51.288;12.390;2023-02-05T21:08:13;49152.06;;;-144.47;84.53
31585;BME280;18191;51.288;12.390;2023-02-05T21:13:03;49112.28;;;-144.47;84.25
31585;BME280;18191;51.288;12.390;2023-02-05T21:17:53;49086.41;;;-144.47;84.28
31585;BME280;18191;51.288;12.390;2023-02-05T21:22:43;49084.44;;;-144.47;84.53
31585;BME280;18191;51.288;12.390;2023-02-05T21:27:34;49138.16;;;-144.47;84.83
31585;BME280;18191;51.288;12.390;2023-02-05T21:32:25;49132.16;;;-144.47;84.63
31585;BME280;18191;51.288;12.390;2023-02-05T21:37:15;49124.22;;;-144.47;84.69
31585;BME280;18191;51.288;12.390;2023-02-05T21:42:05;49100.34;;;-144.47;85.00
31585;BME280;18191;51.288;12.390;2023-02-05T21:46:55;49088.41;;;-144.47;84.63
31585;BME280;18191;51.288;12.390;2023-02-05T21:51:45;49088.41;;;-144.47;84.18
31585;BME280;18191;51.288;12.390;2023-02-05T21:56:38;49179.91;;;-144.47;84.61
31585;BME280;18191;51.288;12.390;2023-02-05T22:01:30;49136.16;;;-144.47;85.21
31585;BME280;18191;51.288;12.390;2023-02-05T22:06:21;49124.22;;;-144.47;84.91
31585;BME280;18191;51.288;12.390;2023-02-05T22:11:12;49120.25;;;-144.47;84.97
31585;BME280;18191;51.288;12.390;2023-02-05T22:16:25;49080.44;;;-144.47;85.13
31585;BME280;18191;51.288;12.390;2023-02-05T22:21:16;49072.50;;;-144.47;84.87
31585;BME280;18191;51.288;12.390;2023-02-05T22:26:07;49144.09;;;-144.47;85.33
31585;BME280;18191;51.288;12.390;2023-02-05T22:31:05;49096.38;;;-144.47;85.48
31585;BME280;18191;51.288;12.390;2023-02-05T22:35:55;49116.25;;;-144.47;85.40
31585;BME280;18191;51.288;12.390;2023-02-05T22:40:46;49116.25;;;-144.47;85.40
31585;BME280;18191;51.288;12.390;2023-02-05T22:45:36;49092.38;;;-144.47;86.05
31585;BME280;18191;51.288;12.390;2023-02-05T22:50:26;49100.34;;;-144.47;86.32
31585;BME280;18191;51.288;12.390;2023-02-05T22:55:16;49140.13;;;-144.47;85.68
31585;BME280;18191;51.288;12.390;2023-02-05T23:00:06;49132.16;;;-144.47;85.63
31585;BME280;18191;51.288;12.390;2023-02-05T23:04:57;49120.25;;;-144.47;85.82
31585;BME280;18191;51.288;12.390;2023-02-05T23:09:47;49124.22;;;-144.47;85.28
31585;BME280;18191;51.288;12.390;2023-02-05T23:14:37;49112.28;;;-144.47;85.16
31585;BME280;18191;51.288;12.390;2023-02-05T23:19:27;49132.16;;;-144.47;85.68
31585;BME280;18191;51.288;12.390;2023-02-05T23:24:17;49152.06;;;-144.47;86.45
31585;BME280;18191;51.288;12.390;2023-02-05T23:29:09;49108.31;;;-144.47;86.33
31585;BME280;18191;51.288;12.390;2023-02-05T23:33:59;49144.09;;;-144.47;86.38
31585;BME280;18191;51.288;12.390;2023-02-05T23:38:50;49100.34;;;-144.47;85.19
31585;BME280;18191;51.288;12.390;2023-02-05T23:43:40;49088.41;;;-144.47;86.10
31585;BME280;18191;51.288;12.390;2023-02-05T23:48:30;49124.22;;;-144.47;86.03
31585;BME280;18191;51.288;12.390;2023-02-05T23:53:20;49088.41;;;-144.47;86.22
31585;BME280;18191;51.288;12.390;2023-02-05T23:58:10;49132.16;;;-144.47;86.27
